Kobuk Valley National Park, AK

12:07 PM AKDT op 25 augustus 2016 (GMT -0800)
Baker Memorial | | Change Station

Hoogte 151 ft 66.98 °N, 160.44 °W | Updated 6 minutes ago

Overcast
Geheel bewolkt
48 °F
Voelt als 48 °F
N
0
Wind Variabel Wind van noord

Vandaag
Hoog -- | Laag -- °F
--% Kans op neerslag
Gisteren
Hoog -- | Laag -- °F
Precip. -- inches
Druk 30.16 inches
Zicht 10.0 mijlen
Wolken Geheel bewolkt 900 ft
Dauwpunt 48 °F
Vochtigheid 100%
Neerslag 0.00 inches
Dikte sneeuw Niet beschikbaar.
6:46 AM 10:36 PM
Laatste kwartier, 42% visible
METAR PAIK 252001Z AUTO 00000KT 10SM OVC009 09/09 A3016 RMK AO2 RAB1924E1943 SLPNO P0000 T00890089
Druk 30.16 inches
Zicht 10.0 mijlen
Wolken Geheel bewolkt 900 ft
Dauwpunt 48 °F
Vochtigheid 100%
Neerslag 0.00 inches
Dikte sneeuw Niet beschikbaar.
6:46 AM 10:36 PM
Laatste kwartier, 42% visible
METAR PAIK 252001Z AUTO 00000KT 10SM OVC009 09/09 A3016 RMK AO2 RAB1924E1943 SLPNO P0000 T00890089

10-Day Weather Forecast

Almanac

Astronomie

Aug. 25, 2016 Opkomst Ondergang
Werkelijke tijd
Burgerlijke schemering
Nautische schemering
Astronomische schemering
Maan
Golflengte van het zichtbare licht
Daglengte
Tomorrow will be .
, % of the Moon is Illuminated

Extremen vandaag

State Highs State Lows

Community

WunderPhotos

Upload Photos

1,934,921 foto’s ge-upload!

WunderBlog® & News

Nearby

Luchtkwaliteit

  Luchtkwaliteit LK-index Verontreinigende stof
Not available.

Dikte sneeuw

Station Depth Geometrische hoogte

Aardbevingen

Stad Distance Mag. Time & Date
Minimum magnitude displayed is 2.5.

Watertemperatuur langs de kust

Plaats Temperatuur

Stations

Nabije weerstations

Locatie station Temp. Gevoelstemperatuur Dauwpunt Vochtigheid Wind Precip. Hoogte Geactualiseerd Type
                   

Watches & Warnings

There are currently no watches in effect.